createdAt,value
2023-05-04T00:01:15.618Z,67.72
2023-05-04T00:03:19.096Z,67.73
2023-05-04T00:05:22.715Z,68.60
2023-05-04T00:07:25.998Z,69.01
2023-05-04T00:09:29.098Z,69.89
2023-05-04T00:11:32.148Z,70.52
2023-05-04T00:13:35.268Z,69.96
2023-05-04T00:15:38.579Z,70.41
2023-05-04T00:17:43.191Z,71.97
2023-05-04T00:19:46.567Z,72.81
2023-05-04T00:21:49.730Z,72.52
2023-05-04T00:23:53.042Z,74.05
2023-05-04T00:25:56.550Z,72.74
2023-05-04T00:27:59.908Z,73.72
2023-05-04T00:30:03.421Z,75.50
2023-05-04T00:32:07.455Z,74.25
2023-05-04T00:34:11.900Z,75.32
2023-05-04T00:36:14.965Z,75.55
2023-05-04T00:38:19.297Z,76.94
2023-05-04T00:40:22.603Z,76.44
2023-05-04T00:42:26.133Z,75.82
2023-05-04T00:44:29.688Z,75.92
2023-05-04T00:46:33.640Z,77.01
2023-05-04T00:48:36.737Z,77.60
2023-05-04T00:50:41.448Z,76.28
2023-05-04T00:52:45.033Z,76.99
2023-05-04T00:54:48.896Z,76.01
2023-05-04T00:56:52.181Z,77.62
2023-05-04T00:58:57.792Z,76.28
2023-05-04T01:01:01.156Z,76.41
2023-05-04T01:03:04.334Z,76.54
2023-05-04T01:05:08.234Z,77.84
2023-05-04T01:07:18.338Z,77.89
2023-05-04T01:09:25.749Z,78.08
2023-05-04T01:11:33.722Z,78.14
2023-05-04T01:13:36.892Z,78.86
2023-05-04T01:15:40.464Z,78.71
2023-05-04T01:17:43.599Z,78.32
2023-05-04T01:19:46.738Z,78.86
2023-05-04T01:21:51.413Z,78.92
2023-05-04T01:23:54.483Z,78.06
2023-05-04T01:26:04.835Z,79.36
2023-05-04T01:28:09.616Z,79.04
2023-05-04T01:30:18.279Z,78.18
2023-05-04T01:32:22.431Z,78.80
2023-05-04T01:34:25.446Z,79.03
2023-05-04T01:36:28.614Z,80.23
2023-05-04T01:38:33.249Z,78.99
2023-05-04T01:40:36.241Z,79.74
2023-05-04T01:42:39.497Z,80.24
2023-05-04T01:44:42.601Z,79.62
2023-05-04T01:46:45.870Z,78.97
2023-05-04T01:48:48.955Z,79.61
2023-05-04T01:50:52.041Z,78.72
2023-05-04T01:52:55.145Z,79.01
2023-05-04T01:54:59.720Z,78.57
2023-05-04T01:57:03.430Z,79.98
2023-05-04T01:59:06.655Z,79.09
2023-05-04T02:01:10.243Z,79.51
2023-05-04T02:03:13.366Z,80.28
2023-05-04T02:05:16.687Z,79.31
2023-05-04T02:07:19.758Z,79.48
2023-05-04T02:09:22.901Z,80.51
2023-05-04T02:11:27.247Z,80.67
2023-05-04T02:13:30.260Z,79.44
2023-05-04T02:15:33.210Z,79.18
2023-05-04T02:17:36.302Z,79.82
2023-05-04T02:19:39.360Z,79.78
2023-05-04T02:21:43.068Z,79.58
2023-05-04T02:23:46.110Z,79.66
2023-05-04T02:25:49.497Z,80.98
2023-05-04T02:27:54.051Z,81.09
2023-05-04T02:29:58.472Z,80.82
2023-05-04T02:32:01.618Z,80.13
2023-05-04T02:34:04.812Z,81.31
2023-05-04T02:36:08.298Z,80.80
2023-05-04T02:38:11.317Z,81.43
2023-05-04T02:40:16.352Z,80.60
2023-05-04T02:42:20.383Z,81.25
2023-05-04T02:44:25.050Z,81.42
2023-05-04T02:46:28.080Z,82.40
2023-05-04T02:48:31.401Z,82.23
2023-05-04T02:50:34.463Z,81.71
2023-05-04T02:52:37.531Z,81.29
2023-05-04T02:54:41.044Z,81.24
2023-05-04T02:56:44.107Z,81.88
2023-05-04T02:58:47.212Z,82.26
2023-05-04T03:00:56.228Z,82.05
2023-05-04T03:02:59.255Z,82.70
2023-05-04T03:05:02.719Z,82.05
2023-05-04T03:07:05.694Z,81.96
2023-05-04T03:09:09.720Z,81.52
2023-05-04T03:11:12.878Z,81.90
2023-05-04T03:13:16.675Z,82.43
2023-05-04T03:15:20.170Z,82.18
2023-05-04T03:17:24.638Z,81.36
2023-05-04T03:19:28.104Z,81.56
2023-05-04T03:21:31.333Z,80.88
2023-05-04T03:23:35.527Z,81.29
2023-05-04T03:25:38.606Z,81.55
2023-05-04T03:27:42.065Z,81.22
2023-05-04T03:29:45.277Z,81.04
2023-05-04T03:31:48.703Z,80.49
2023-05-04T03:33:54.994Z,81.69
2023-05-04T03:35:58.773Z,80.60
2023-05-04T03:38:01.813Z,81.64
2023-05-04T03:40:05.894Z,81.57
2023-05-04T03:42:09.204Z,81.74
2023-05-04T03:44:12.227Z,82.44
2023-05-04T03:46:15.512Z,82.44
2023-05-04T03:48:18.586Z,81.59
2023-05-04T03:50:23.195Z,82.29
2023-05-04T03:52:26.664Z,82.32
2023-05-04T03:54:29.675Z,82.09
2023-05-04T03:56:32.857Z,82.63
2023-05-04T03:58:36.330Z,82.61
2023-05-04T04:00:41.591Z,82.64
2023-05-04T04:02:49.620Z,82.41
2023-05-04T04:04:55.670Z,83.10
2023-05-04T04:07:00.204Z,83.16
2023-05-04T04:09:05.492Z,83.17
2023-05-04T04:11:08.521Z,83.70
2023-05-04T04:13:11.663Z,83.24
2023-05-04T04:15:14.818Z,82.70
2023-05-04T04:17:17.919Z,82.77
2023-05-04T04:19:21.020Z,83.42
2023-05-04T04:21:24.049Z,83.30
2023-05-04T04:23:28.437Z,83.39
2023-05-04T04:25:31.578Z,83.87
2023-05-04T04:27:38.227Z,83.39
2023-05-04T04:29:41.698Z,83.94
2023-05-04T04:31:45.235Z,83.49
2023-05-04T04:33:48.482Z,83.22
2023-05-04T04:35:51.799Z,83.05
2023-05-04T04:37:54.889Z,83.42
2023-05-04T04:39:59.269Z,83.77
2023-05-04T04:42:02.752Z,83.48
2023-05-04T04:44:06.003Z,83.64
2023-05-04T04:46:09.420Z,83.89
2023-05-04T04:48:12.897Z,84.23
2023-05-04T04:50:15.913Z,84.14
2023-05-04T04:52:19.139Z,83.74
2023-05-04T04:54:22.156Z,84.16
2023-05-04T04:56:27.002Z,83.67
2023-05-04T04:58:30.014Z,83.98
2023-05-04T05:00:33.149Z,83.95
2023-05-04T05:02:36.456Z,83.54
2023-05-04T05:04:41.060Z,82.74
2023-05-04T05:06:44.150Z,82.67
2023-05-04T05:08:47.175Z,83.18
2023-05-04T05:10:50.286Z,82.04
2023-05-04T05:12:54.759Z,82.37
2023-05-04T05:14:57.892Z,82.26
2023-05-04T05:17:03.990Z,82.85
2023-05-04T05:19:07.088Z,81.69
2023-05-04T05:21:10.346Z,81.97
2023-05-04T05:23:13.389Z,81.89
2023-05-04T05:25:17.418Z,81.51
2023-05-04T05:27:20.468Z,82.94
2023-05-04T05:29:25.054Z,83.08
2023-05-04T05:31:28.302Z,82.17
2023-05-04T05:33:31.543Z,80.54
2023-05-04T05:35:34.580Z,80.64
2023-05-04T05:37:37.691Z,79.27
2023-05-04T05:39:40.817Z,78.58
2023-05-04T05:41:43.993Z,77.01
2023-05-04T05:43:47.234Z,78.51
2023-05-04T05:45:51.676Z,77.58
2023-05-04T05:47:54.801Z,77.60
2023-05-04T05:49:57.989Z,76.19
2023-05-04T05:52:01.121Z,75.63
2023-05-04T05:54:04.312Z,74.03
2023-05-04T05:56:08.176Z,73.27
2023-05-04T05:58:11.315Z,73.16
2023-05-04T06:00:15.349Z,71.35
2023-05-04T06:02:19.936Z,72.58
2023-05-04T06:04:23.127Z,71.59
2023-05-04T06:06:26.246Z,70.52
2023-05-04T06:08:29.315Z,69.92
2023-05-04T06:10:32.320Z,69.96
2023-05-04T06:12:35.571Z,67.55
2023-05-04T06:14:38.792Z,69.43
2023-05-04T06:16:41.866Z,68.46
2023-05-04T06:18:46.379Z,65.93
2023-05-04T06:20:49.624Z,66.54
2023-05-04T06:22:52.897Z,66.40
2023-05-04T06:25:02.161Z,66.15
2023-05-04T06:27:07.358Z,66.39
2023-05-04T06:29:10.435Z,65.81
2023-05-04T06:31:13.621Z,65.38
2023-05-04T06:33:17.252Z,63.69
2023-05-04T06:35:21.793Z,64.50
2023-05-04T06:37:25.171Z,64.79
2023-05-04T06:39:28.408Z,64.23
2023-05-04T06:41:31.605Z,65.09
2023-05-04T06:43:34.759Z,65.07
2023-05-04T06:45:38.130Z,65.26
2023-05-04T06:47:41.806Z,65.67
2023-05-04T06:49:44.987Z,62.80
2023-05-04T06:51:49.654Z,64.01
2023-05-04T06:53:53.698Z,63.98
2023-05-04T06:55:56.729Z,64.22
2023-05-04T06:57:59.835Z,61.84
2023-05-04T07:00:04.436Z,61.71
2023-05-04T07:02:08.227Z,62.68
2023-05-04T07:04:11.579Z,61.79
2023-05-04T07:06:14.598Z,62.49
2023-05-04T07:08:19.666Z,61.31
2023-05-04T07:10:22.755Z,59.51
2023-05-04T07:12:26.229Z,59.98
2023-05-04T07:14:29.410Z,60.64
2023-05-04T07:16:33.051Z,60.09
2023-05-04T07:18:36.380Z,58.98
2023-05-04T07:20:43.322Z,60.43
2023-05-04T07:22:46.452Z,59.17
2023-05-04T07:24:50.817Z,58.97
2023-05-04T07:26:53.916Z,60.17
2023-05-04T07:28:57.161Z,60.98
2023-05-04T07:31:00.284Z,59.44
2023-05-04T07:33:03.379Z,58.63
2023-05-04T07:35:07.303Z,59.30
2023-05-04T07:37:10.361Z,61.46
2023-05-04T07:39:13.540Z,58.60
2023-05-04T07:41:17.888Z,58.98
2023-05-04T07:43:20.932Z,58.88
2023-05-04T07:45:24.197Z,59.65
2023-05-04T07:47:27.394Z,59.32
2023-05-04T07:49:30.696Z,60.00
2023-05-04T07:51:33.887Z,58.95
2023-05-04T07:53:37.028Z,58.52
2023-05-04T07:55:40.184Z,59.32
2023-05-04T07:57:44.602Z,59.03
2023-05-04T07:59:47.717Z,59.80
2023-05-04T08:01:50.862Z,59.77
2023-05-04T08:03:53.920Z,59.45
2023-05-04T08:05:57.077Z,58.52
2023-05-04T08:08:00.242Z,59.03
2023-05-04T08:10:03.626Z,60.62
2023-05-04T08:12:07.678Z,59.09
2023-05-04T08:14:12.254Z,59.82
2023-05-04T08:16:15.581Z,58.92
2023-05-04T08:18:19.400Z,56.31
2023-05-04T08:20:23.705Z,55.74
2023-05-04T08:22:27.149Z,56.98
2023-05-04T08:24:30.600Z,56.01
2023-05-04T08:26:34.373Z,55.31
2023-05-04T08:28:38.685Z,55.43
2023-05-04T08:30:43.558Z,55.00
2023-05-04T08:32:48.376Z,56.04
2023-05-04T08:34:51.822Z,57.39
2023-05-04T08:36:55.004Z,54.83
2023-05-04T08:38:58.229Z,56.10
2023-05-04T08:41:03.435Z,54.72
2023-05-04T08:43:06.445Z,54.73
2023-05-04T08:45:10.390Z,54.75
2023-05-04T08:47:14.883Z,54.29
2023-05-04T08:49:17.956Z,54.87
2023-05-04T08:51:21.407Z,54.11
2023-05-04T08:53:24.710Z,53.21
2023-05-04T08:55:28.267Z,53.57
2023-05-04T08:57:31.679Z,54.06
2023-05-04T08:59:35.472Z,54.33
2023-05-04T09:01:39.285Z,54.89
2023-05-04T09:03:44.372Z,54.05
2023-05-04T09:05:47.620Z,55.20
2023-05-04T09:07:52.741Z,53.60
2023-05-04T09:09:57.044Z,52.91
2023-05-04T09:12:00.274Z,54.28
2023-05-04T09:14:03.315Z,53.68
2023-05-04T09:16:07.815Z,53.05
2023-05-04T09:18:11.821Z,55.23
2023-05-04T09:20:16.375Z,52.81
2023-05-04T09:22:20.277Z,54.20
2023-05-04T09:24:29.654Z,53.71
2023-05-04T09:26:34.368Z,54.03
2023-05-04T09:28:39.145Z,53.86
2023-05-04T09:30:42.673Z,53.25
2023-05-04T09:32:49.592Z,52.89
2023-05-04T09:34:54.032Z,55.35
2023-05-04T09:37:01.970Z,53.01
2023-05-04T09:39:12.458Z,52.73
2023-05-04T09:41:15.614Z,53.29
2023-05-04T09:43:18.850Z,54.44
2023-05-04T09:45:22.122Z,52.44
2023-05-04T09:47:33.139Z,53.06
2023-05-04T09:49:36.977Z,53.87
2023-05-04T09:51:40.138Z,52.19
2023-05-04T09:53:44.745Z,54.33
2023-05-04T09:55:49.193Z,53.06
2023-05-04T09:57:52.234Z,53.82
2023-05-04T09:59:56.489Z,52.09
2023-05-04T10:02:04.788Z,52.95
2023-05-04T10:04:17.528Z,54.76
2023-05-04T10:06:21.278Z,53.51
2023-05-04T10:08:24.555Z,53.76
2023-05-04T10:10:29.270Z,53.86
2023-05-04T10:12:32.354Z,50.79
2023-05-04T10:14:36.250Z,51.36
2023-05-04T10:16:48.893Z,52.51
2023-05-04T10:19:33.039Z,53.26
2023-05-04T10:21:47.329Z,51.77
2023-05-04T10:24:04.535Z,49.88
2023-05-04T10:26:23.146Z,50.95
2023-05-04T10:28:37.005Z,51.63
2023-05-04T10:30:40.674Z,51.74
2023-05-04T10:32:43.844Z,49.72
2023-05-04T10:34:47.307Z,49.74
2023-05-04T10:36:50.417Z,49.68
2023-05-04T10:38:53.649Z,49.66
2023-05-04T10:40:56.757Z,51.11
2023-05-04T10:43:01.148Z,49.03
2023-05-04T10:45:05.873Z,49.21
2023-05-04T10:47:09.469Z,48.82
2023-05-04T10:49:21.244Z,50.32
2023-05-04T10:51:32.649Z,51.06
2023-05-04T10:53:42.058Z,49.17
2023-05-04T10:55:46.542Z,49.75
2023-05-04T10:57:53.278Z,49.30
2023-05-04T10:59:59.227Z,49.51
2023-05-04T11:02:03.029Z,49.39
2023-05-04T11:04:06.462Z,48.72
2023-05-04T11:06:16.950Z,48.91
2023-05-04T11:08:21.567Z,50.09
2023-05-04T11:10:25.895Z,48.60
2023-05-04T11:12:28.965Z,48.80
2023-05-04T11:14:37.547Z,49.51
2023-05-04T11:16:42.869Z,49.30
2023-05-04T11:18:46.168Z,49.66
2023-05-04T11:20:49.243Z,49.03
2023-05-04T11:22:53.079Z,48.07
2023-05-04T11:24:59.382Z,47.46
2023-05-04T11:27:03.439Z,48.57
2023-05-04T11:29:13.636Z,48.29
2023-05-04T11:31:17.703Z,47.80
2023-05-04T11:33:22.147Z,49.28
2023-05-04T11:35:25.243Z,50.45
2023-05-04T11:37:30.228Z,48.72
2023-05-04T11:39:33.613Z,47.49
2023-05-04T11:41:37.857Z,47.02
2023-05-04T11:43:43.676Z,47.93
2023-05-04T11:45:49.190Z,48.26
2023-05-04T11:47:53.381Z,49.85
2023-05-04T11:49:58.170Z,49.01
2023-05-04T11:52:07.985Z,49.07
2023-05-04T11:54:20.863Z,49.55
2023-05-04T11:56:24.382Z,48.54
2023-05-04T11:58:28.266Z,49.42
2023-05-04T12:00:39.626Z,49.56
2023-05-04T12:02:42.992Z,49.17
2023-05-04T12:04:46.204Z,50.10
2023-05-04T12:06:50.758Z,50.15
2023-05-04T12:09:02.895Z,49.75
2023-05-04T12:11:16.506Z,50.77
2023-05-04T12:13:19.789Z,50.03
2023-05-04T12:15:30.602Z,51.05
2023-05-04T12:17:42.983Z,48.90
2023-05-04T12:19:51.138Z,48.42
2023-05-04T12:21:58.321Z,48.93
2023-05-04T12:24:02.043Z,48.84
2023-05-04T12:26:05.626Z,51.52
2023-05-04T12:28:08.710Z,47.49
2023-05-04T12:30:13.229Z,48.84
2023-05-04T12:32:16.359Z,49.42
2023-05-04T12:34:19.556Z,49.55
2023-05-04T12:36:22.680Z,50.07
2023-05-04T12:38:27.193Z,49.00
2023-05-04T12:40:32.151Z,50.32
2023-05-04T12:42:35.284Z,49.99
2023-05-04T12:44:38.338Z,50.80
2023-05-04T12:46:41.442Z,50.46
2023-05-04T12:48:44.540Z,49.45
2023-05-04T12:50:48.603Z,49.89
2023-05-04T12:52:51.873Z,49.33
2023-05-04T12:54:56.346Z,49.95
2023-05-04T12:56:59.422Z,49.87
2023-05-04T12:59:02.489Z,48.59
2023-05-04T13:01:05.634Z,48.01
2023-05-04T13:03:09.640Z,48.46
2023-05-04T13:05:13.086Z,49.64
2023-05-04T13:07:16.125Z,51.10
2023-05-04T13:09:20.716Z,49.84
2023-05-04T13:11:25.190Z,50.18
2023-05-04T13:13:29.586Z,51.22
2023-05-04T13:15:33.193Z,51.92
2023-05-04T13:17:36.930Z,51.13
2023-05-04T13:19:40.066Z,52.15
2023-05-04T13:21:43.488Z,51.37
2023-05-04T13:23:46.707Z,49.85
2023-05-04T13:25:50.634Z,50.75
2023-05-04T13:27:55.252Z,49.62
2023-05-04T13:30:01.111Z,47.87
2023-05-04T13:32:04.215Z,47.26
2023-05-04T13:34:07.585Z,50.13
2023-05-04T13:36:10.923Z,49.92
2023-05-04T13:38:14.136Z,49.50
2023-05-04T13:40:17.350Z,50.53
2023-05-04T13:42:21.148Z,51.19
2023-05-04T13:44:25.556Z,51.56
2023-05-04T13:46:28.987Z,52.21
2023-05-04T13:48:32.841Z,51.51
2023-05-04T13:50:35.894Z,51.07
2023-05-04T13:52:39.012Z,52.71
2023-05-04T13:54:42.387Z,51.68
2023-05-04T13:56:46.073Z,51.50
2023-05-04T13:58:49.097Z,50.54
2023-05-04T14:00:56.115Z,50.88
2023-05-04T14:02:59.539Z,49.20
2023-05-04T14:05:02.900Z,50.94
2023-05-04T14:07:06.091Z,51.37
2023-05-04T14:09:09.598Z,51.85
2023-05-04T14:11:12.626Z,51.23
2023-05-04T14:13:16.033Z,51.84
2023-05-04T14:15:22.556Z,51.42
2023-05-04T14:17:27.144Z,51.04
2023-05-04T14:19:30.148Z,49.05
2023-05-04T14:21:33.181Z,50.43
2023-05-04T14:23:36.304Z,49.97
2023-05-04T14:25:41.942Z,48.73
2023-05-04T14:27:45.023Z,49.17
2023-05-04T14:29:48.226Z,48.27
2023-05-04T14:31:51.388Z,49.52
2023-05-04T14:33:57.005Z,48.84
2023-05-04T14:36:00.986Z,49.69
2023-05-04T14:38:04.463Z,50.20
2023-05-04T14:40:09.251Z,51.97
2023-05-04T14:42:12.791Z,50.36
2023-05-04T14:44:15.881Z,51.08
2023-05-04T14:46:18.976Z,50.61
2023-05-04T14:48:24.273Z,50.53
2023-05-04T14:50:28.907Z,50.65
2023-05-04T14:52:32.414Z,51.76
2023-05-04T14:54:35.435Z,51.43
2023-05-04T14:56:38.738Z,49.90
2023-05-04T14:58:42.288Z,49.68
2023-05-04T15:00:45.481Z,50.23
2023-05-04T15:02:48.662Z,51.06
2023-05-04T15:04:51.863Z,50.62
2023-05-04T15:06:56.637Z,49.97
2023-05-04T15:08:59.905Z,49.96
2023-05-04T15:11:02.986Z,49.96
2023-05-04T15:13:06.179Z,48.73
2023-05-04T15:15:10.388Z,48.84
2023-05-04T15:17:13.603Z,49.33
2023-05-04T15:19:16.703Z,49.36
2023-05-04T15:21:20.173Z,50.06
2023-05-04T15:23:24.598Z,50.01
2023-05-04T15:25:27.757Z,50.32
2023-05-04T15:27:30.883Z,51.30
2023-05-04T15:29:33.925Z,50.03
2023-05-04T15:31:37.463Z,49.70
2023-05-04T15:33:40.770Z,49.70
2023-05-04T15:35:44.061Z,49.33
2023-05-04T15:37:47.102Z,50.20
2023-05-04T15:39:51.736Z,49.27
2023-05-04T15:41:54.793Z,49.88
2023-05-04T15:43:58.124Z,50.02
2023-05-04T15:46:01.265Z,49.68
2023-05-04T15:48:04.741Z,49.35
2023-05-04T15:50:09.193Z,48.33
2023-05-04T15:52:12.658Z,47.68
2023-05-04T15:54:15.717Z,46.99
2023-05-04T15:56:20.497Z,48.14
2023-05-04T15:58:23.578Z,48.98
2023-05-04T16:00:27.786Z,48.12
2023-05-04T16:02:31.343Z,48.36
2023-05-04T16:04:34.371Z,49.38
2023-05-04T16:06:37.474Z,48.28
2023-05-04T16:08:40.661Z,49.25
2023-05-04T16:10:43.878Z,49.17
2023-05-04T16:12:48.703Z,48.69
2023-05-04T16:14:52.087Z,49.71
2023-05-04T16:16:55.424Z,48.81
2023-05-04T16:18:58.552Z,48.42
2023-05-04T16:21:01.541Z,50.50
2023-05-04T16:23:04.785Z,49.39
2023-05-04T16:25:10.332Z,49.14
2023-05-04T16:27:14.381Z,48.67
2023-05-04T16:29:18.908Z,48.45
2023-05-04T16:31:22.446Z,50.33
2023-05-04T16:33:26.792Z,48.57
2023-05-04T16:35:31.447Z,49.06
2023-05-04T16:37:36.276Z,48.53
2023-05-04T16:39:39.733Z,48.86
2023-05-04T16:41:46.667Z,48.72
2023-05-04T16:43:50.006Z,49.37
2023-05-04T16:45:54.569Z,50.00
2023-05-04T16:47:57.675Z,50.75
2023-05-04T16:50:00.838Z,50.85
2023-05-04T16:52:05.657Z,50.91
2023-05-04T16:54:08.986Z,51.40
2023-05-04T16:56:18.186Z,51.37
2023-05-04T16:58:21.442Z,51.80
2023-05-04T17:00:24.841Z,51.05
2023-05-04T17:02:29.290Z,51.07
2023-05-04T17:04:32.418Z,50.16
2023-05-04T17:06:35.570Z,51.28
2023-05-04T17:08:38.653Z,51.69
2023-05-04T17:10:41.902Z,51.67
2023-05-04T17:12:44.958Z,52.33
2023-05-04T17:14:48.119Z,52.12
2023-05-04T17:16:51.191Z,51.54
2023-05-04T17:18:55.584Z,51.71
2023-05-04T17:20:58.641Z,52.17
2023-05-04T17:23:01.814Z,52.55
2023-05-04T17:25:05.308Z,52.12
2023-05-04T17:27:08.406Z,53.03
2023-05-04T17:29:11.967Z,52.96
2023-05-04T17:31:15.164Z,53.50
2023-05-04T17:33:18.348Z,54.06
2023-05-04T17:35:25.986Z,54.38
2023-05-04T17:37:29.767Z,53.69
2023-05-04T17:39:32.851Z,53.94
2023-05-04T17:41:36.358Z,54.11
2023-05-04T17:43:39.536Z,54.79
2023-05-04T17:45:42.624Z,54.60
2023-05-04T17:47:46.482Z,54.90
2023-05-04T17:49:49.664Z,56.30
2023-05-04T17:51:54.215Z,55.64
2023-05-04T17:53:57.365Z,56.79
2023-05-04T17:56:00.580Z,57.12
2023-05-04T17:58:03.608Z,57.22
2023-05-04T18:00:09.002Z,56.52
2023-05-04T18:02:12.399Z,57.72
2023-05-04T18:04:15.739Z,57.02
2023-05-04T18:06:19.785Z,56.97
2023-05-04T18:08:24.279Z,56.67
2023-05-04T18:10:27.405Z,56.87
2023-05-04T18:12:30.618Z,57.35
2023-05-04T18:14:33.908Z,57.68
2023-05-04T18:16:39.303Z,57.30
2023-05-04T18:18:42.544Z,57.67
2023-05-04T18:20:45.787Z,57.87
2023-05-04T18:22:48.920Z,58.41
2023-05-04T18:24:53.376Z,58.93
2023-05-04T18:26:57.236Z,58.82
2023-05-04T18:29:11.098Z,59.92
2023-05-04T18:31:20.737Z,59.94
2023-05-04T18:33:23.867Z,59.79
2023-05-04T18:35:27.088Z,59.93
2023-05-04T18:37:30.722Z,60.01
2023-05-04T18:39:33.837Z,60.39
2023-05-04T18:41:38.307Z,59.56
2023-05-04T18:43:51.390Z,59.49
2023-05-04T18:45:54.515Z,59.28
2023-05-04T18:47:58.998Z,60.67
2023-05-04T18:50:02.283Z,59.77
2023-05-04T18:52:05.839Z,60.69
2023-05-04T18:54:09.188Z,61.30
2023-05-04T18:56:12.402Z,59.30
2023-05-04T18:58:16.907Z,59.92
2023-05-04T19:00:20.320Z,60.35
2023-05-04T19:02:23.437Z,61.65
2023-05-04T19:04:26.563Z,61.85
2023-05-04T19:06:29.638Z,61.68
2023-05-04T19:08:32.687Z,61.79
2023-05-04T19:10:35.877Z,61.70
2023-05-04T19:12:38.962Z,60.95
2023-05-04T19:14:44.133Z,61.79
2023-05-04T19:16:47.282Z,62.43
2023-05-04T19:18:50.380Z,62.69
2023-05-04T19:20:54.691Z,61.33
2023-05-04T19:22:57.824Z,61.11
2023-05-04T19:25:00.907Z,60.98
2023-05-04T19:27:04.332Z,61.19
2023-05-04T19:29:07.525Z,62.08
2023-05-04T19:31:12.104Z,62.70
2023-05-04T19:33:15.461Z,62.76
2023-05-04T19:35:19.070Z,62.69
2023-05-04T19:37:23.116Z,61.67
2023-05-04T19:39:26.431Z,61.64
2023-05-04T19:41:29.538Z,61.63
2023-05-04T19:43:33.507Z,61.78
2023-05-04T19:45:36.611Z,61.89
2023-05-04T19:47:41.797Z,63.18
2023-05-04T19:49:47.516Z,61.75
2023-05-04T19:51:50.570Z,62.20
2023-05-04T19:53:53.669Z,63.17
2023-05-04T19:55:58.268Z,62.13
2023-05-04T19:58:01.393Z,61.41
2023-05-04T20:00:06.607Z,62.54
2023-05-04T20:02:14.727Z,61.81
2023-05-04T20:04:19.448Z,62.66
2023-05-04T20:06:22.716Z,62.07
2023-05-04T20:08:26.867Z,62.38
2023-05-04T20:10:29.932Z,62.48
2023-05-04T20:12:33.497Z,62.75
2023-05-04T20:14:36.785Z,61.59
2023-05-04T20:16:41.773Z,62.89
2023-05-04T20:18:45.560Z,62.40
2023-05-04T20:20:51.395Z,62.75
2023-05-04T20:22:55.988Z,62.71
2023-05-04T20:24:59.200Z,63.63
2023-05-04T20:27:02.386Z,63.12
2023-05-04T20:29:05.658Z,62.71
2023-05-04T20:31:09.228Z,62.90
2023-05-04T20:33:12.467Z,63.47
2023-05-04T20:35:16.166Z,62.79
2023-05-04T20:37:20.634Z,63.68
2023-05-04T20:39:23.841Z,64.31
2023-05-04T20:41:26.954Z,63.87
2023-05-04T20:43:30.080Z,64.87
2023-05-04T20:45:33.476Z,65.11
2023-05-04T20:47:36.848Z,65.10
2023-05-04T20:49:39.976Z,66.32
2023-05-04T20:51:43.133Z,66.88
2023-05-04T20:53:47.859Z,67.12
2023-05-04T20:55:51.191Z,67.20
2023-05-04T20:57:54.320Z,67.85
2023-05-04T20:59:57.523Z,68.23
2023-05-04T21:02:00.653Z,68.67
2023-05-04T21:04:03.788Z,68.67
2023-05-04T21:06:07.485Z,68.34
2023-05-04T21:08:12.562Z,68.81
2023-05-04T21:10:17.029Z,69.16
2023-05-04T21:12:20.102Z,69.46
2023-05-04T21:14:23.647Z,70.17
2023-05-04T21:16:26.780Z,70.27
2023-05-04T21:18:29.920Z,71.25
2023-05-04T21:20:33.212Z,71.17
2023-05-04T21:22:36.338Z,70.92
2023-05-04T21:24:39.508Z,71.85
2023-05-04T21:26:45.043Z,71.76
2023-05-04T21:28:48.161Z,71.35
2023-05-04T21:30:53.857Z,71.83
2023-05-04T21:32:57.010Z,72.06
2023-05-04T21:35:00.087Z,72.18
2023-05-04T21:37:03.209Z,72.48
2023-05-04T21:39:06.316Z,71.42
2023-05-04T21:41:13.366Z,71.65
2023-05-04T21:43:17.935Z,72.98
2023-05-04T21:45:21.442Z,72.60
2023-05-04T21:47:24.829Z,71.75
2023-05-04T21:49:27.880Z,72.40
2023-05-04T21:51:31.716Z,73.76
2023-05-04T21:53:34.810Z,72.80
2023-05-04T21:55:37.880Z,72.68
2023-05-04T21:57:40.957Z,74.05
2023-05-04T21:59:46.147Z,73.97
2023-05-04T22:01:49.995Z,72.86
2023-05-04T22:03:53.873Z,73.40
2023-05-04T22:05:58.220Z,74.42
2023-05-04T22:08:01.684Z,73.90
2023-05-04T22:10:05.190Z,74.20
2023-05-04T22:12:08.807Z,75.31
2023-05-04T22:14:11.852Z,75.32
2023-05-04T22:16:16.350Z,74.22
2023-05-04T22:18:19.428Z,75.09
2023-05-04T22:20:23.484Z,74.85
2023-05-04T22:22:26.577Z,75.92
2023-05-04T22:24:29.500Z,76.37
2023-05-04T22:26:32.524Z,76.57
2023-05-04T22:28:35.590Z,76.31
2023-05-04T22:30:38.604Z,78.19
2023-05-04T22:32:43.100Z,77.25
2023-05-04T22:34:46.709Z,78.82
2023-05-04T22:36:49.762Z,77.05
2023-05-04T22:38:52.835Z,77.92
2023-05-04T22:40:55.943Z,78.37
2023-05-04T22:42:58.998Z,76.31
2023-05-04T22:45:02.012Z,78.24
2023-05-04T22:47:06.291Z,77.51
2023-05-04T22:49:10.778Z,76.68
2023-05-04T22:51:13.933Z,77.80
2023-05-04T22:53:17.334Z,79.22
2023-05-04T22:55:20.617Z,77.99
2023-05-04T22:57:22.723Z,78.55
2023-05-04T22:59:25.791Z,77.41
2023-05-04T23:01:30.277Z,77.80
2023-05-04T23:03:33.518Z,79.66
2023-05-04T23:05:38.029Z,79.54
2023-05-04T23:07:41.044Z,78.51
2023-05-04T23:09:45.175Z,79.11
2023-05-04T23:11:48.286Z,79.82
2023-05-04T23:13:51.400Z,79.45
2023-05-04T23:15:54.558Z,78.50
2023-05-04T23:17:57.765Z,79.59
2023-05-04T23:20:01.152Z,78.28
2023-05-04T23:22:05.685Z,79.48
2023-05-04T23:24:08.948Z,79.79
2023-05-04T23:26:11.991Z,78.39
2023-05-04T23:28:15.006Z,78.80
2023-05-04T23:30:18.410Z,79.72
2023-05-04T23:32:21.492Z,79.65
2023-05-04T23:34:24.555Z,78.63
2023-05-04T23:36:27.688Z,79.50
2023-05-04T23:38:32.059Z,80.06
2023-05-04T23:40:35.109Z,79.96
2023-05-04T23:42:38.353Z,81.19
2023-05-04T23:44:41.470Z,80.81
2023-05-04T23:46:44.596Z,81.14
2023-05-04T23:48:47.567Z,80.73
2023-05-04T23:50:53.899Z,80.81
2023-05-04T23:52:57.091Z,79.95
2023-05-04T23:55:01.486Z,80.75
2023-05-04T23:57:05.030Z,80.94
2023-05-04T23:59:08.227Z,81.48
